createdAt,value
2017-12-04T00:00:04.813Z,1024.54
2017-12-04T00:05:02.784Z,1024.59
2017-12-04T00:10:03.464Z,1024.59
2017-12-04T00:15:03.095Z,1024.62
2017-12-04T00:20:03.554Z,1024.62
2017-12-04T00:25:03.122Z,1024.69
2017-12-04T00:30:03.612Z,1024.63
2017-12-04T00:35:03.038Z,1024.53
2017-12-04T00:40:03.556Z,1024.5
2017-12-04T00:45:03.208Z,1024.48
2017-12-04T00:50:03.691Z,1024.53
2017-12-04T00:55:03.187Z,1024.61
2017-12-04T01:00:03.602Z,1024.64
2017-12-04T01:05:03.045Z,1024.65
2017-12-04T01:10:02.875Z,1024.61
2017-12-04T01:15:03.291Z,1024.64
2017-12-04T01:20:02.809Z,1024.71
2017-12-04T01:25:03.444Z,1024.73
2017-12-04T01:30:02.850Z,1024.79
2017-12-04T01:35:03.475Z,1024.8
2017-12-04T01:40:02.968Z,1024.85
2017-12-04T01:45:03.527Z,1024.74
2017-12-04T01:50:03.018Z,1024.82
2017-12-04T01:55:03.621Z,1024.88
2017-12-04T02:00:03.273Z,1024.84
2017-12-04T02:05:02.793Z,1024.8
2017-12-04T02:10:03.432Z,1024.8
2017-12-04T02:15:02.834Z,1024.78
2017-12-04T02:20:03.368Z,1024.79
2017-12-04T02:25:02.823Z,1024.81
2017-12-04T02:30:03.441Z,1024.85
2017-12-04T02:35:03.093Z,1024.83
2017-12-04T02:40:03.597Z,1024.81
2017-12-04T02:45:03.010Z,1024.85
2017-12-04T02:50:03.535Z,1024.83
2017-12-04T02:55:03.156Z,1024.8
2017-12-04T03:00:03.587Z,1024.9
2017-12-04T03:05:02.939Z,1024.85
2017-12-04T03:10:03.460Z,1024.88
2017-12-04T03:15:02.918Z,1024.83
2017-12-04T03:20:03.314Z,1024.83
2017-12-04T03:25:02.846Z,1024.83
2017-12-04T03:30:03.518Z,1024.81
2017-12-04T03:35:03.020Z,1024.85
2017-12-04T03:40:03.549Z,1024.87
2017-12-04T03:45:02.988Z,1025
2017-12-04T03:50:03.682Z,1025.05
2017-12-04T03:55:03.229Z,1025.03
2017-12-04T04:00:02.780Z,1024.95
2017-12-04T04:05:03.323Z,1025.07
2017-12-04T04:10:02.857Z,1025.12
2017-12-04T04:15:03.274Z,1025.21
2017-12-04T04:20:02.924Z,1025.21
2017-12-04T04:25:03.593Z,1025.19
2017-12-04T04:30:03.260Z,1025.19
2017-12-04T04:35:02.878Z,1025.12
2017-12-04T04:40:03.327Z,1025.12
2017-12-04T04:45:02.955Z,1025.2
2017-12-04T04:50:03.574Z,1025.27
2017-12-04T04:55:03.196Z,1025.18
2017-12-04T05:00:03.635Z,1025.18
2017-12-04T05:05:03.154Z,1025.25
2017-12-04T05:10:03.609Z,1025.18
2017-12-04T05:15:03.286Z,1025.22
2017-12-04T05:20:02.985Z,1025.32
2017-12-04T05:25:03.584Z,1025.38
2017-12-04T05:30:03.608Z,1025.36
2017-12-04T05:35:03.217Z,1025.43
2017-12-04T05:40:02.878Z,1025.42
2017-12-04T05:45:03.508Z,1025.36
2017-12-04T05:50:03.003Z,1025.47
2017-12-04T05:55:03.454Z,1025.57
2017-12-04T06:00:03.041Z,1025.6
2017-12-04T06:05:03.473Z,1025.49
2017-12-04T06:10:02.953Z,1025.57
2017-12-04T06:15:03.380Z,1025.53
2017-12-04T06:20:02.784Z,1025.58
2017-12-04T06:25:03.177Z,1025.68
2017-12-04T06:30:03.558Z,1025.63
2017-12-04T06:35:03.105Z,1025.73
2017-12-04T06:40:02.702Z,1025.9
2017-12-04T06:45:03.216Z,1025.91
2017-12-04T06:50:02.805Z,1025.93
2017-12-04T06:55:03.316Z,1026.01
2017-12-04T07:00:03.068Z,1026.07
2017-12-04T07:05:03.433Z,1026.11
2017-12-04T07:10:02.895Z,1026.15
2017-12-04T07:15:03.424Z,1026.22
2017-12-04T07:20:02.893Z,1026.25
2017-12-04T07:25:03.349Z,1026.27
2017-12-04T07:30:02.767Z,1026.26
2017-12-04T07:35:03.322Z,1026.34
2017-12-04T07:40:02.818Z,1026.35
2017-12-04T07:45:03.267Z,1026.37
2017-12-04T07:50:02.775Z,1026.38
2017-12-04T07:55:03.207Z,1026.38
2017-12-04T08:00:02.819Z,1026.48
2017-12-04T08:05:03.408Z,1026.61
2017-12-04T08:10:02.904Z,1026.55
2017-12-04T08:15:03.310Z,1026.54
2017-12-04T08:20:02.776Z,1026.59
2017-12-04T08:25:03.407Z,1026.66
2017-12-04T08:30:02.950Z,1026.7
2017-12-04T08:35:03.655Z,1026.74
2017-12-04T08:40:03.104Z,1026.82
2017-12-04T08:45:03.598Z,1026.8
2017-12-04T08:50:03.200Z,1026.86
2017-12-04T08:55:02.781Z,1026.86
2017-12-04T09:00:03.396Z,1026.96
2017-12-04T09:05:02.832Z,1027
2017-12-04T09:10:03.561Z,1027.06
2017-12-04T09:15:03.038Z,1027.14
2017-12-04T09:20:02.671Z,1027.12
2017-12-04T09:25:03.254Z,1027.11
2017-12-04T09:30:02.876Z,1027.28
2017-12-04T09:35:03.527Z,1027.33
2017-12-04T09:40:03.170Z,1027.39
2017-12-04T09:45:03.598Z,1027.46
2017-12-04T09:50:03.113Z,1027.55
2017-12-04T09:55:03.577Z,1027.56
2017-12-04T10:00:03.010Z,1027.6
2017-12-04T10:05:03.656Z,1027.66
2017-12-04T10:10:03.138Z,1027.78
2017-12-04T10:15:03.613Z,1027.76
2017-12-04T10:20:03.202Z,1027.77
2017-12-04T10:25:02.681Z,1027.77
2017-12-04T10:30:03.161Z,1027.81
2017-12-04T10:35:03.568Z,1027.83
2017-12-04T10:40:03.114Z,1027.81
2017-12-04T10:45:03.678Z,1027.89
2017-12-04T10:50:03.289Z,1027.88
2017-12-04T10:55:03.035Z,1027.84
2017-12-04T11:00:02.711Z,1027.93
2017-12-04T11:05:03.183Z,1027.86
2017-12-04T11:10:03.556Z,1028.02
2017-12-04T11:15:02.922Z,1027.93
2017-12-04T11:20:03.456Z,1027.96
2017-12-04T11:25:03.020Z,1027.8
2017-12-04T11:30:03.450Z,1027.83
2017-12-04T11:35:02.927Z,1027.9
2017-12-04T11:40:03.584Z,1027.99
2017-12-04T11:45:03.052Z,1028.01
2017-12-04T11:50:03.558Z,1028.03
2017-12-04T11:55:03.152Z,1027.94
2017-12-04T12:00:03.605Z,1027.97
2017-12-04T12:05:03.165Z,1027.97
2017-12-04T12:10:03.598Z,1027.88
2017-12-04T12:15:03.081Z,1027.96
2017-12-04T12:20:03.571Z,1027.98
2017-12-04T12:25:02.979Z,1027.89
2017-12-04T12:30:03.469Z,1027.92
2017-12-04T12:35:02.955Z,1027.89
2017-12-04T12:40:03.584Z,1027.91
2017-12-04T12:45:03.129Z,1027.79
2017-12-04T12:50:02.758Z,1027.83
2017-12-04T12:55:03.457Z,1027.87
2017-12-04T13:00:02.860Z,1027.95
2017-12-04T13:05:03.304Z,1027.85
2017-12-04T13:10:02.786Z,1027.9
2017-12-04T13:15:03.304Z,1027.9
2017-12-04T13:20:02.948Z,1027.96
2017-12-04T13:25:03.479Z,1027.96
2017-12-04T13:30:02.975Z,1027.96
2017-12-04T13:35:03.658Z,1028.01
2017-12-04T13:40:03.312Z,1027.93
2017-12-04T13:45:02.737Z,1027.96
2017-12-04T13:50:03.435Z,1028.01
2017-12-04T13:55:03.030Z,1028.02
2017-12-04T14:00:03.672Z,1028.03
2017-12-04T14:05:03.418Z,1028.09
2017-12-04T14:10:03.028Z,1028.04
2017-12-04T14:15:03.609Z,1028.12
2017-12-04T14:20:03.267Z,1028.18
2017-12-04T14:25:03.677Z,1028.24
2017-12-04T14:30:03.128Z,1028.26
2017-12-04T14:35:02.670Z,1028.28
2017-12-04T14:40:03.237Z,1028.26
2017-12-04T14:45:02.898Z,1028.26
2017-12-04T14:50:03.399Z,1028.43
2017-12-04T14:55:02.981Z,1028.5
2017-12-04T15:00:03.492Z,1028.58
2017-12-04T15:05:03.137Z,1028.61
2017-12-04T15:10:02.699Z,1028.64
2017-12-04T15:15:03.147Z,1028.66
2017-12-04T15:20:02.827Z,1028.63
2017-12-04T15:25:03.456Z,1028.69
2017-12-04T15:30:03.042Z,1028.67
2017-12-04T15:35:03.660Z,1028.72
2017-12-04T15:40:03.308Z,1028.73
2017-12-04T15:45:02.701Z,1028.78
2017-12-04T15:50:03.325Z,1028.89
2017-12-04T15:55:02.811Z,1028.92
2017-12-04T16:00:03.657Z,1028.94
2017-12-04T16:05:03.257Z,1029.06
2017-12-04T16:10:02.874Z,1029.18
2017-12-04T16:15:03.473Z,1029.2
2017-12-04T16:20:02.945Z,1029.31
2017-12-04T16:25:03.453Z,1029.32
2017-12-04T16:30:03.004Z,1029.39
2017-12-04T16:35:03.636Z,1029.4
2017-12-04T16:40:03.332Z,1029.54
2017-12-04T16:45:02.831Z,1029.63
2017-12-04T16:50:03.355Z,1029.67
2017-12-04T16:55:02.778Z,1029.72
2017-12-04T17:00:03.248Z,1029.79
2017-12-04T17:05:02.891Z,1029.8
2017-12-04T17:10:03.357Z,1029.88
2017-12-04T17:15:03.045Z,1029.9
2017-12-04T17:20:03.691Z,1030
2017-12-04T17:25:03.274Z,1030.09
2017-12-04T17:30:02.712Z,1030.13
2017-12-04T17:35:03.207Z,1030.18
2017-12-04T17:40:02.803Z,1030.32
2017-12-04T17:45:03.411Z,1030.32
2017-12-04T17:50:02.907Z,1030.35
2017-12-04T17:55:03.568Z,1030.35
2017-12-04T18:00:03.147Z,1030.3
2017-12-04T18:05:03.591Z,1030.38
2017-12-04T18:10:03.041Z,1030.37
2017-12-04T18:15:03.510Z,1030.42
2017-12-04T18:20:03.191Z,1030.49
2017-12-04T18:25:02.847Z,1030.58
2017-12-04T18:30:03.500Z,1030.64
2017-12-04T18:35:02.983Z,1030.59
2017-12-04T18:40:03.560Z,1030.66
2017-12-04T18:45:03.104Z,1030.74
2017-12-04T18:50:03.562Z,1030.71
2017-12-04T18:55:03.115Z,1030.68
2017-12-04T19:00:02.707Z,1030.7
2017-12-04T19:05:03.200Z,1030.71
2017-12-04T19:10:02.863Z,1030.77
2017-12-04T19:15:03.466Z,1030.79
2017-12-04T19:20:02.949Z,1030.92
2017-12-04T19:25:03.555Z,1030.93
2017-12-04T19:30:03.020Z,1031.02
2017-12-04T19:35:03.697Z,1030.99
2017-12-04T19:40:03.148Z,1031.03
2017-12-04T19:45:02.757Z,1031.1
2017-12-04T19:50:03.439Z,1031.11
2017-12-04T19:55:03.027Z,1031.11
2017-12-04T20:00:03.603Z,1031.14
2017-12-04T20:05:03.157Z,1031.01
2017-12-04T20:10:02.711Z,1031.02
2017-12-04T20:15:03.173Z,1031
2017-12-04T20:20:02.867Z,1031.09
2017-12-04T20:25:03.429Z,1031.19
2017-12-04T20:30:03.101Z,1031.24
2017-12-04T20:35:03.552Z,1031.22
2017-12-04T20:40:03.049Z,1031.28
2017-12-04T20:45:03.524Z,1031.25
2017-12-04T20:50:03.079Z,1031.37
2017-12-04T20:55:03.656Z,1031.32
2017-12-04T21:00:03.510Z,1031.39
2017-12-04T21:05:03.188Z,1031.4
2017-12-04T21:10:03.671Z,1031.43
2017-12-04T21:15:03.093Z,1031.51
2017-12-04T21:20:03.612Z,1031.52
2017-12-04T21:25:03.130Z,1031.59
2017-12-04T21:30:03.600Z,1031.66
2017-12-04T21:35:03.218Z,1031.65
2017-12-04T21:40:02.897Z,1031.68
2017-12-04T21:45:03.339Z,1031.73
2017-12-04T21:50:02.940Z,1031.69
2017-12-04T21:55:03.444Z,1031.68
2017-12-04T22:00:03.278Z,1031.7
2017-12-04T22:05:02.942Z,1031.67
2017-12-04T22:10:03.414Z,1031.63
2017-12-04T22:15:02.888Z,1031.66
2017-12-04T22:20:03.441Z,1031.8
2017-12-04T22:25:02.875Z,1031.91
2017-12-04T22:30:03.516Z,1031.92
2017-12-04T22:35:03.159Z,1032.06
2017-12-04T22:40:02.751Z,1032.11
2017-12-04T22:45:03.274Z,1032.14
2017-12-04T22:50:02.919Z,1032.22
2017-12-04T22:55:03.506Z,1032.29
2017-12-04T23:00:03.036Z,1032.27
2017-12-04T23:05:03.592Z,1032.17
2017-12-04T23:10:03.322Z,1032.25
2017-12-04T23:15:02.931Z,1032.25
2017-12-04T23:20:03.377Z,1032.32
2017-12-04T23:25:02.943Z,1032.2
2017-12-04T23:30:03.557Z,1032.27
2017-12-04T23:35:03.224Z,1032.19
2017-12-04T23:40:02.809Z,1032.19
2017-12-04T23:45:03.439Z,1032.19
2017-12-04T23:50:03.039Z,1032.21
2017-12-04T23:55:03.597Z,1032.15
